createdAt,value
2018-09-25T00:00:35.980Z,9.61
2018-09-25T00:03:09.606Z,9.58
2018-09-25T00:05:44.070Z,9.61
2018-09-25T00:08:17.621Z,9.62
2018-09-25T00:10:51.200Z,9.61
2018-09-25T00:13:24.858Z,9.59
2018-09-25T00:16:04.519Z,9.59
2018-09-25T00:18:38.200Z,9.59
2018-09-25T00:21:12.735Z,9.59
2018-09-25T00:23:46.438Z,9.54
2018-09-25T00:26:20.746Z,9.43
2018-09-25T00:28:54.318Z,9.31
2018-09-25T00:31:28.798Z,9.16
2018-09-25T00:34:02.460Z,9.12
2018-09-25T00:36:36.388Z,9.14
2018-09-25T00:39:12.218Z,9.20
2018-09-25T00:41:45.898Z,9.18
2018-09-25T00:44:19.594Z,9.15
2018-09-25T00:46:53.360Z,9.13
2018-09-25T00:49:26.818Z,9.05
2018-09-25T00:52:00.542Z,9.04
2018-09-25T00:54:34.202Z,9.06
2018-09-25T00:57:09.418Z,9.13
2018-09-25T00:59:43.094Z,9.13
2018-09-25T01:02:21.273Z,9.13
2018-09-25T01:04:54.901Z,9.10
2018-09-25T01:07:29.379Z,9.06
2018-09-25T01:10:03.160Z,9.10
2018-09-25T01:12:37.653Z,9.11
2018-09-25T01:15:11.436Z,9.16
2018-09-25T01:17:45.185Z,9.18
2018-09-25T01:20:18.742Z,9.23
2018-09-25T01:22:53.799Z,9.22
2018-09-25T01:25:27.597Z,9.19
2018-09-25T01:28:01.292Z,9.23
2018-09-25T01:30:34.819Z,9.27
2018-09-25T01:33:08.577Z,9.32
2018-09-25T01:35:42.225Z,9.34
2018-09-25T01:38:19.801Z,9.33
2018-09-25T01:40:53.463Z,9.36
2018-09-25T01:43:28.937Z,9.37
2018-09-25T01:46:02.404Z,9.34
2018-09-25T01:48:36.099Z,9.22
2018-09-25T01:51:09.595Z,9.16
2018-09-25T01:53:44.077Z,9.17
2018-09-25T01:56:17.757Z,9.18
2018-09-25T01:58:51.473Z,9.16
2018-09-25T02:01:25.166Z,9.09
2018-09-25T02:04:00.279Z,9.07
2018-09-25T02:06:33.882Z,9.00
2018-09-25T02:09:08.337Z,8.91
2018-09-25T02:11:42.001Z,8.85
2018-09-25T02:14:16.518Z,8.82
2018-09-25T02:16:50.977Z,8.66
2018-09-25T02:19:24.794Z,8.51
2018-09-25T02:21:58.261Z,8.43
2018-09-25T02:24:32.099Z,8.47
2018-09-25T02:27:05.678Z,8.48
2018-09-25T02:29:41.663Z,8.51
2018-09-25T02:32:15.314Z,8.54
2018-09-25T02:34:48.995Z,8.51
2018-09-25T02:37:22.651Z,8.56
2018-09-25T02:39:56.384Z,8.68
2018-09-25T02:42:29.998Z,8.78
2018-09-25T02:45:04.490Z,8.85
2018-09-25T02:47:38.022Z,8.90
2018-09-25T02:50:12.874Z,8.93
2018-09-25T02:52:46.520Z,8.95
2018-09-25T02:55:21.662Z,8.98
2018-09-25T02:57:55.307Z,8.98
2018-09-25T03:00:29.779Z,8.99
2018-09-25T03:03:03.458Z,8.99
2018-09-25T03:05:37.207Z,8.98
2018-09-25T03:08:11.119Z,9.00
2018-09-25T03:10:46.333Z,9.04
2018-09-25T03:13:19.929Z,9.10
2018-09-25T03:15:54.359Z,9.12
2018-09-25T03:18:27.803Z,9.18
2018-09-25T03:21:01.323Z,9.20
2018-09-25T03:23:35.037Z,9.23
2018-09-25T03:26:11.006Z,9.23
2018-09-25T03:28:44.714Z,9.22
2018-09-25T03:31:19.358Z,9.26
2018-09-25T03:33:53.004Z,9.26
2018-09-25T03:36:26.574Z,9.23
2018-09-25T03:39:00.227Z,9.16
2018-09-25T03:41:33.923Z,9.17
2018-09-25T03:44:07.494Z,9.21
2018-09-25T03:46:42.679Z,9.20
2018-09-25T03:49:16.324Z,9.18
2018-09-25T03:51:49.906Z,9.13
2018-09-25T03:54:23.572Z,9.06
2018-09-25T03:57:01.984Z,9.03
2018-09-25T03:59:35.633Z,9.03
2018-09-25T04:02:09.516Z,9.00
2018-09-25T04:04:43.104Z,8.99
2018-09-25T04:07:18.479Z,8.92
2018-09-25T04:09:52.027Z,8.90
2018-09-25T04:12:25.577Z,8.89
2018-09-25T04:14:59.283Z,8.93
2018-09-25T04:17:32.987Z,8.99
2018-09-25T04:20:06.612Z,9.05
2018-09-25T04:22:40.293Z,9.05
2018-09-25T04:25:14.090Z,9.01
2018-09-25T04:27:51.466Z,8.95
2018-09-25T04:30:25.046Z,8.92
2018-09-25T04:33:04.904Z,9.03
2018-09-25T04:35:38.434Z,9.06
2018-09-25T04:38:13.917Z,9.11
2018-09-25T04:40:47.403Z,9.10
2018-09-25T04:43:24.226Z,9.11
2018-09-25T04:45:57.869Z,9.15
2018-09-25T04:48:31.451Z,9.19
2018-09-25T04:51:05.190Z,9.19
2018-09-25T04:53:39.000Z,9.20
2018-09-25T04:56:12.726Z,9.23
2018-09-25T04:58:46.469Z,9.25
2018-09-25T05:01:20.118Z,9.21
2018-09-25T05:03:53.848Z,9.11
2018-09-25T05:06:29.127Z,9.03
2018-09-25T05:09:02.704Z,9.01
2018-09-25T05:11:36.386Z,9.00
2018-09-25T05:14:10.135Z,9.00
2018-09-25T05:16:43.585Z,9.04
2018-09-25T05:19:17.098Z,9.12
2018-09-25T05:21:50.665Z,9.16
2018-09-25T05:24:26.849Z,9.16
2018-09-25T05:27:00.418Z,9.08
2018-09-25T05:29:34.081Z,9.05
2018-09-25T05:32:07.741Z,9.04
2018-09-25T05:34:41.409Z,9.09
2018-09-25T05:37:15.161Z,9.10
2018-09-25T05:39:48.850Z,9.06
2018-09-25T05:42:22.285Z,9.11
2018-09-25T05:44:55.978Z,9.15
2018-09-25T05:47:29.645Z,9.12
2018-09-25T05:50:03.295Z,9.01
2018-09-25T05:52:37.062Z,8.95
2018-09-25T05:55:11.685Z,8.95
2018-09-25T05:57:45.406Z,8.94
2018-09-25T06:00:21.224Z,8.93
2018-09-25T06:02:54.758Z,9.00
2018-09-25T06:05:28.643Z,9.05
2018-09-25T06:08:03.246Z,9.14
2018-09-25T06:10:38.282Z,9.20
2018-09-25T06:13:11.910Z,9.20
2018-09-25T06:15:46.382Z,9.17
2018-09-25T06:18:20.046Z,9.16
2018-09-25T06:20:54.588Z,9.20
2018-09-25T06:23:28.234Z,9.33
2018-09-25T06:26:02.272Z,9.41
2018-09-25T06:28:36.002Z,9.47
2018-09-25T06:31:09.712Z,9.53
2018-09-25T06:33:43.434Z,9.57
2018-09-25T06:36:17.125Z,9.61
2018-09-25T06:38:50.799Z,9.70
2018-09-25T06:41:24.493Z,9.78
2018-09-25T06:43:58.162Z,9.84
2018-09-25T06:46:31.602Z,9.82
2018-09-25T06:49:05.298Z,9.78
2018-09-25T06:51:38.950Z,9.77
2018-09-25T06:54:12.659Z,9.81
2018-09-25T06:56:46.531Z,9.83
2018-09-25T06:59:20.090Z,9.82
2018-09-25T07:01:53.841Z,9.85
2018-09-25T07:04:27.466Z,9.88
2018-09-25T07:07:01.160Z,9.85
2018-09-25T07:09:35.121Z,9.86
2018-09-25T07:12:08.872Z,9.99
2018-09-25T07:14:42.394Z,10.05
2018-09-25T07:17:16.180Z,10.08
2018-09-25T07:19:49.846Z,10.17
2018-09-25T07:22:23.474Z,10.28
2018-09-25T07:24:57.219Z,10.38
2018-09-25T07:27:30.918Z,10.42
2018-09-25T07:30:04.666Z,10.40
2018-09-25T07:32:38.372Z,10.36
2018-09-25T07:35:12.082Z,10.39
2018-09-25T07:37:45.958Z,10.47
2018-09-25T07:40:19.639Z,10.52
2018-09-25T07:42:53.398Z,10.64
2018-09-25T07:45:27.082Z,10.80
2018-09-25T07:48:00.535Z,10.93
2018-09-25T07:50:34.374Z,10.95
2018-09-25T07:53:07.874Z,10.87
2018-09-25T07:55:41.516Z,10.92
2018-09-25T07:58:15.186Z,11.08
2018-09-25T08:00:48.888Z,11.19
2018-09-25T08:03:22.626Z,11.23
2018-09-25T08:05:56.231Z,11.15
2018-09-25T08:08:30.037Z,11.11
2018-09-25T08:11:03.695Z,11.15
2018-09-25T08:13:37.585Z,11.30
2018-09-25T08:16:11.959Z,11.41
2018-09-25T08:18:45.625Z,11.50
2018-09-25T08:21:19.423Z,11.63
2018-09-25T08:23:53.295Z,11.79
2018-09-25T08:26:26.879Z,11.97
2018-09-25T08:29:00.607Z,12.05
2018-09-25T08:31:34.295Z,12.11
2018-09-25T08:34:08.134Z,12.20
2018-09-25T08:36:41.639Z,12.26
2018-09-25T08:39:15.251Z,12.33
2018-09-25T08:41:49.116Z,12.40
2018-09-25T08:44:22.788Z,12.52
2018-09-25T08:46:56.223Z,12.71
2018-09-25T08:49:29.893Z,12.84
2018-09-25T08:52:03.301Z,12.89
2018-09-25T08:54:37.083Z,12.98
2018-09-25T08:57:10.878Z,13.04
2018-09-25T08:59:44.550Z,13.12
2018-09-25T09:02:18.353Z,13.11
2018-09-25T09:04:51.927Z,13.13
2018-09-25T09:07:25.445Z,13.14
2018-09-25T09:09:59.055Z,13.13
2018-09-25T09:12:32.891Z,13.16
2018-09-25T09:15:06.888Z,13.21
2018-09-25T09:17:40.629Z,13.25
2018-09-25T09:20:14.479Z,13.25
2018-09-25T09:22:48.095Z,13.25
2018-09-25T09:25:21.723Z,13.27
2018-09-25T09:27:55.479Z,13.26
2018-09-25T09:30:28.947Z,13.28
2018-09-25T09:33:02.641Z,13.28
2018-09-25T09:35:36.394Z,13.30
2018-09-25T09:38:09.807Z,13.34
2018-09-25T09:40:43.551Z,13.32
2018-09-25T09:43:18.009Z,13.31
2018-09-25T09:45:51.765Z,13.34
2018-09-25T09:48:25.468Z,13.35
2018-09-25T09:50:59.135Z,13.35
2018-09-25T09:53:32.817Z,13.35
2018-09-25T09:56:06.791Z,13.37
2018-09-25T09:58:42.227Z,13.45
2018-09-25T10:01:15.941Z,13.48
2018-09-25T10:03:49.975Z,13.49
2018-09-25T10:06:23.587Z,13.43
2018-09-25T10:08:57.273Z,13.51
2018-09-25T10:11:31.337Z,13.56
2018-09-25T10:14:04.981Z,13.53
2018-09-25T10:16:38.877Z,13.50
2018-09-25T10:19:12.418Z,13.57
2018-09-25T10:21:46.182Z,13.70
2018-09-25T10:24:19.861Z,13.66
2018-09-25T10:26:53.745Z,13.55
2018-09-25T10:29:27.433Z,13.62
2018-09-25T10:32:01.160Z,13.83
2018-09-25T10:34:34.826Z,14.12
2018-09-25T10:37:08.722Z,14.24
2018-09-25T10:39:42.493Z,14.14
2018-09-25T10:42:16.246Z,14.15
2018-09-25T10:44:49.744Z,14.23
2018-09-25T10:47:23.472Z,14.31
2018-09-25T10:49:57.365Z,14.30
2018-09-25T10:52:31.035Z,14.44
2018-09-25T10:55:04.669Z,14.56
2018-09-25T10:57:38.103Z,14.64
2018-09-25T11:00:11.704Z,14.76
2018-09-25T11:02:45.449Z,14.90
2018-09-25T11:05:18.857Z,15.00
2018-09-25T11:07:52.643Z,15.04
2018-09-25T11:10:26.327Z,15.02
2018-09-25T11:12:59.949Z,15.09
2018-09-25T11:15:33.715Z,15.24
2018-09-25T11:18:07.538Z,15.37
2018-09-25T11:20:41.160Z,15.48
2018-09-25T11:23:14.966Z,15.61
2018-09-25T11:25:48.708Z,15.65
2018-09-25T11:28:22.326Z,15.68
2018-09-25T11:30:56.150Z,15.79
2018-09-25T11:33:29.921Z,15.98
2018-09-25T11:36:03.478Z,16.07
2018-09-25T11:38:37.362Z,16.18
2018-09-25T11:41:10.853Z,16.27
2018-09-25T11:43:44.490Z,16.36
2018-09-25T11:46:18.202Z,16.31
2018-09-25T11:48:51.898Z,16.40
2018-09-25T11:51:25.734Z,16.46
2018-09-25T11:53:59.191Z,16.64
2018-09-25T11:56:32.779Z,16.71
2018-09-25T11:59:06.402Z,16.76
2018-09-25T12:01:40.102Z,16.82
2018-09-25T12:04:13.803Z,16.90
2018-09-25T12:06:47.342Z,16.87
2018-09-25T12:09:21.008Z,16.88
2018-09-25T12:11:54.681Z,16.87
2018-09-25T12:14:28.595Z,16.90
2018-09-25T12:17:02.317Z,16.99
2018-09-25T12:19:36.226Z,17.11
2018-09-25T12:22:09.821Z,17.23
2018-09-25T12:24:43.510Z,17.32
2018-09-25T12:27:17.217Z,17.39
2018-09-25T12:29:50.947Z,17.43
2018-09-25T12:32:24.671Z,17.46
2018-09-25T12:34:58.301Z,17.42
2018-09-25T12:37:32.120Z,17.42
2018-09-25T12:40:05.823Z,17.38
2018-09-25T12:42:39.543Z,17.36
2018-09-25T12:45:13.065Z,17.30
2018-09-25T12:47:46.681Z,17.23
2018-09-25T12:50:20.334Z,17.21
2018-09-25T12:52:53.823Z,17.32
2018-09-25T12:55:27.691Z,17.39
2018-09-25T12:58:01.205Z,17.54
2018-09-25T13:00:34.834Z,17.65
2018-09-25T13:03:08.452Z,17.81
2018-09-25T13:05:42.195Z,17.95
2018-09-25T13:08:15.950Z,18.03
2018-09-25T13:10:49.854Z,17.99
2018-09-25T13:13:23.546Z,18.07
2018-09-25T13:15:58.042Z,18.17
2018-09-25T13:18:31.413Z,18.15
2018-09-25T13:21:05.081Z,18.23
2018-09-25T13:23:38.811Z,18.39
2018-09-25T13:26:12.484Z,18.40
2018-09-25T13:28:46.098Z,18.28
2018-09-25T13:31:19.586Z,18.04
2018-09-25T13:33:53.146Z,17.99
2018-09-25T13:36:27.001Z,18.06
2018-09-25T13:39:00.578Z,18.09
2018-09-25T13:41:35.006Z,18.09
2018-09-25T13:44:08.808Z,18.17
2018-09-25T13:46:42.574Z,18.21
2018-09-25T13:49:16.134Z,18.23
2018-09-25T13:51:49.797Z,18.23
2018-09-25T13:54:23.542Z,18.25
2018-09-25T13:56:57.246Z,18.36
2018-09-25T13:59:30.818Z,18.45
2018-09-25T14:02:04.563Z,18.49
2018-09-25T14:04:38.242Z,18.43
2018-09-25T14:07:11.967Z,18.41
2018-09-25T14:09:45.702Z,18.36
2018-09-25T14:12:19.383Z,18.33
2018-09-25T14:14:53.158Z,18.25
2018-09-25T14:17:27.016Z,18.19
2018-09-25T14:20:00.783Z,18.23
2018-09-25T14:22:34.879Z,18.25
2018-09-25T14:25:08.536Z,18.27
2018-09-25T14:27:42.267Z,18.30
2018-09-25T14:30:16.011Z,18.29
2018-09-25T14:32:49.741Z,18.20
2018-09-25T14:35:23.505Z,18.20
2018-09-25T14:37:57.115Z,18.20
2018-09-25T14:40:30.813Z,18.20
2018-09-25T14:43:04.501Z,18.10
2018-09-25T14:45:38.088Z,18.09
2018-09-25T14:48:11.777Z,18.06
2018-09-25T14:50:45.517Z,18.04
2018-09-25T14:53:19.146Z,17.97
2018-09-25T14:55:52.765Z,17.90
2018-09-25T14:58:26.341Z,17.89
2018-09-25T15:01:00.026Z,17.95
2018-09-25T15:03:33.742Z,17.97
2018-09-25T15:06:07.413Z,17.92
2018-09-25T15:08:41.132Z,17.85
2018-09-25T15:11:14.858Z,17.78
2018-09-25T15:13:48.624Z,17.74
2018-09-25T15:16:22.287Z,17.67
2018-09-25T15:18:56.042Z,17.57
2018-09-25T15:21:29.625Z,17.49
2018-09-25T15:24:03.329Z,17.43
2018-09-25T15:26:37.191Z,17.42
2018-09-25T15:29:10.748Z,17.38
2018-09-25T15:31:44.417Z,17.37
2018-09-25T15:34:18.185Z,17.30
2018-09-25T15:36:58.714Z,17.22
2018-09-25T15:39:32.445Z,17.13
2018-09-25T15:42:06.195Z,17.03
2018-09-25T15:44:39.955Z,16.97
2018-09-25T15:47:13.527Z,16.93
2018-09-25T15:49:47.419Z,16.89
2018-09-25T15:52:21.119Z,16.80
2018-09-25T15:54:54.821Z,16.70
2018-09-25T15:57:28.581Z,16.63
2018-09-25T16:00:02.307Z,16.58
2018-09-25T16:02:36.069Z,16.47
2018-09-25T16:05:09.797Z,16.39
2018-09-25T16:07:43.556Z,16.29
2018-09-25T16:10:17.274Z,16.19
2018-09-25T16:12:50.903Z,16.07
2018-09-25T16:15:24.649Z,15.99
2018-09-25T16:17:58.380Z,15.88
2018-09-25T16:20:32.101Z,15.72
2018-09-25T16:23:05.786Z,15.66
2018-09-25T16:25:39.495Z,15.58
2018-09-25T16:28:13.065Z,15.45
2018-09-25T16:30:46.788Z,15.37
2018-09-25T16:33:20.407Z,15.28
2018-09-25T16:35:54.069Z,15.20
2018-09-25T16:38:27.804Z,15.13
2018-09-25T16:41:01.470Z,15.06
2018-09-25T16:43:35.118Z,14.94
2018-09-25T16:46:08.854Z,14.84
2018-09-25T16:48:42.470Z,14.72
2018-09-25T16:51:16.189Z,14.63
2018-09-25T16:53:49.908Z,14.53
2018-09-25T16:56:23.477Z,14.45
2018-09-25T16:58:57.217Z,14.37
2018-09-25T17:01:30.956Z,14.27
2018-09-25T17:04:04.642Z,14.23
2018-09-25T17:06:38.307Z,14.17
2018-09-25T17:09:12.570Z,14.10
2018-09-25T17:11:46.294Z,14.08
2018-09-25T17:14:19.991Z,14.01
2018-09-25T17:16:53.643Z,13.97
2018-09-25T17:19:27.179Z,13.95
2018-09-25T17:22:00.902Z,13.92
2018-09-25T17:24:34.590Z,13.85
2018-09-25T17:27:08.347Z,13.79
2018-09-25T17:29:42.085Z,13.74
2018-09-25T17:32:15.937Z,13.68
2018-09-25T17:41:41.990Z,13.31
2018-09-25T17:44:15.591Z,13.29
2018-09-25T17:46:49.167Z,13.27
2018-09-25T17:49:22.866Z,13.27
2018-09-25T17:51:56.666Z,13.24
2018-09-25T17:54:30.174Z,13.22
2018-09-25T17:57:03.663Z,13.20
2018-09-25T17:59:37.241Z,13.13
2018-09-25T18:02:10.985Z,13.08
2018-09-25T18:04:45.687Z,13.01
2018-09-25T18:07:19.419Z,12.99
2018-09-25T18:09:53.065Z,12.96
2018-09-25T18:12:26.685Z,12.95
2018-09-25T18:15:00.395Z,12.91
2018-09-25T18:17:33.918Z,12.87
2018-09-25T18:20:07.662Z,12.61
2018-09-25T18:22:42.258Z,12.45
2018-09-25T18:25:15.909Z,12.34
2018-09-25T18:27:49.678Z,12.25
2018-09-25T18:30:23.344Z,12.19
2018-09-25T18:32:57.033Z,12.11
2018-09-25T18:35:30.850Z,11.75
2018-09-25T18:38:04.511Z,11.62
2018-09-25T18:40:38.155Z,11.50
2018-09-25T18:43:11.789Z,11.34
2018-09-25T18:45:45.460Z,11.25
2018-09-25T18:48:19.479Z,11.30
2018-09-25T18:50:53.162Z,11.31
2018-09-25T18:53:26.761Z,11.28
2018-09-25T18:56:00.382Z,11.34
2018-09-25T18:58:34.558Z,11.34
2018-09-25T19:01:08.085Z,11.21
2018-09-25T19:03:41.602Z,11.15
2018-09-25T19:06:15.365Z,11.17
2018-09-25T19:08:49.098Z,11.19
2018-09-25T19:11:22.698Z,11.16
2018-09-25T19:13:56.429Z,11.05
2018-09-25T19:16:30.132Z,10.94
2018-09-25T19:19:03.671Z,10.99
2018-09-25T19:21:37.427Z,10.97
2018-09-25T19:24:11.578Z,10.98
2018-09-25T19:26:45.322Z,10.93
2018-09-25T19:29:19.075Z,10.86
2018-09-25T19:31:52.830Z,10.72
2018-09-25T19:34:26.359Z,10.63
2018-09-25T19:37:00.814Z,10.64
2018-09-25T19:39:34.462Z,10.62
2018-09-25T19:42:08.162Z,10.52
2018-09-25T19:44:41.963Z,10.47
2018-09-25T19:47:15.623Z,10.38
2018-09-25T19:49:49.446Z,10.27
2018-09-25T19:52:22.918Z,10.31
2018-09-25T19:54:56.613Z,10.41
2018-09-25T19:57:30.358Z,10.42
2018-09-25T20:00:04.141Z,10.40
2018-09-25T20:02:37.783Z,10.37
2018-09-25T20:05:11.311Z,10.37
2018-09-25T20:07:45.079Z,10.35
2018-09-25T20:10:18.907Z,10.24
2018-09-25T20:12:52.566Z,9.90
2018-09-25T20:15:26.234Z,9.61
2018-09-25T20:17:59.902Z,9.48
2018-09-25T20:20:33.539Z,9.36
2018-09-25T20:23:07.184Z,9.22
2018-09-25T20:25:40.646Z,9.19
2018-09-25T20:28:14.323Z,9.11
2018-09-25T20:30:48.006Z,9.08
2018-09-25T20:33:22.426Z,9.10
2018-09-25T20:35:56.137Z,9.19
2018-09-25T20:38:29.726Z,9.25
2018-09-25T20:41:03.402Z,9.33
2018-09-25T20:43:37.116Z,9.34
2018-09-25T20:46:11.058Z,9.37
2018-09-25T20:48:44.755Z,9.37
2018-09-25T20:51:18.221Z,9.41
2018-09-25T20:53:51.754Z,9.45
2018-09-25T20:56:25.502Z,9.45
2018-09-25T20:58:58.902Z,9.46
2018-09-25T21:01:32.767Z,9.39
2018-09-25T21:04:06.376Z,9.37
2018-09-25T21:06:40.062Z,9.35
2018-09-25T21:09:14.241Z,9.19
2018-09-25T21:11:48.617Z,9.07
2018-09-25T21:14:22.330Z,9.00
2018-09-25T21:16:56.022Z,8.91
2018-09-25T21:19:29.674Z,8.75
2018-09-25T21:22:03.369Z,8.55
2018-09-25T21:24:37.006Z,8.51
2018-09-25T21:27:10.855Z,8.35
2018-09-25T21:29:44.622Z,8.24
2018-09-25T21:32:18.393Z,8.16
2018-09-25T21:34:51.978Z,8.08
2018-09-25T21:37:25.546Z,8.20
2018-09-25T21:39:59.002Z,8.27
2018-09-25T21:42:32.574Z,8.23
2018-09-25T21:45:06.123Z,8.27
2018-09-25T21:47:39.611Z,8.21
2018-09-25T21:50:13.121Z,8.30
2018-09-25T21:52:47.241Z,8.31
2018-09-25T21:55:20.810Z,8.11
2018-09-25T21:57:54.424Z,8.04
2018-09-25T22:00:28.078Z,8.08
2018-09-25T22:03:01.870Z,8.07
2018-09-25T22:05:35.463Z,8.05
2018-09-25T22:08:08.998Z,7.96
2018-09-25T22:10:42.474Z,7.92
2018-09-25T22:13:16.138Z,7.88
2018-09-25T22:15:49.558Z,7.78
2018-09-25T22:18:23.057Z,7.64
2018-09-25T22:20:56.562Z,7.55
2018-09-25T22:23:30.158Z,7.54
2018-09-25T22:26:03.855Z,7.67
2018-09-25T22:28:37.247Z,7.75
2018-09-25T22:31:10.920Z,7.80
2018-09-25T22:33:44.434Z,7.80
2018-09-25T22:36:18.119Z,7.69
2018-09-25T22:38:51.612Z,7.69
2018-09-25T22:41:25.166Z,7.69
2018-09-25T22:43:58.858Z,7.70
2018-09-25T22:46:32.550Z,7.67
2018-09-25T22:49:06.116Z,7.74
2018-09-25T22:51:39.838Z,7.83
2018-09-25T22:54:13.554Z,7.88
2018-09-25T22:56:47.154Z,7.94
2018-09-25T22:59:20.878Z,7.94
2018-09-25T23:01:54.491Z,7.92
2018-09-25T23:04:28.166Z,7.94
2018-09-25T23:07:01.558Z,7.85
2018-09-25T23:09:35.420Z,7.75
2018-09-25T23:12:08.942Z,7.55
2018-09-25T23:14:42.633Z,7.49
2018-09-25T23:17:16.198Z,7.45
2018-09-25T23:19:49.902Z,7.41
2018-09-25T23:22:23.342Z,7.37
2018-09-25T23:24:57.122Z,7.37
2018-09-25T23:27:30.849Z,7.35
2018-09-25T23:30:04.479Z,7.33
2018-09-25T23:32:37.962Z,7.31
2018-09-25T23:35:11.634Z,7.30
2018-09-25T23:37:45.273Z,7.37
2018-09-25T23:40:21.925Z,7.38
2018-09-25T23:42:58.582Z,7.44
2018-09-25T23:45:32.271Z,7.49
2018-09-25T23:48:04.934Z,7.46
2018-09-25T23:50:38.635Z,7.43
2018-09-25T23:53:11.346Z,7.36
2018-09-25T23:55:43.237Z,7.28
2018-09-25T23:58:16.099Z,7.28
